Time;durP1;ratioP1;P1;durP2;ratioP2;P2;SDS_P1;SDS_P2;PMS_P1;PMS_P2;Temp;Humidity;BMP_temperature;BMP_pressure;BME280_temperature;BME280_humidity;BME280_pressure;Samples;Min_cycle;Max_cycle;Signal;HPM_P1;HPM_P2
2023/06/15 00:01:43;;;;;;;;;;;;;;;;;;5115815;28;19919;-73
2023/06/15 00:04:08;;;;;;;;;;;;;;;;;;5116095;28;19973;-73
2023/06/15 00:06:33;;;;;;;;;;;;;;;;;;5115857;28;20375;-73
2023/06/15 00:08:59;;;;;;;;;;;;;;;;;;5114459;28;19923;-73
2023/06/15 00:11:24;;;;;;;;;;;;;;;;;;5115665;28;19924;-73
2023/06/15 00:13:49;;;;;;;;;;;;;;;;;;5115300;28;19923;-73
2023/06/15 00:16:18;;;;;;;;;;;;;;;;;;5115341;28;19973;-72
2023/06/15 00:18:47;;;;;;;;;;;;;;;;;;5115311;28;19919;-72
2023/06/15 00:21:13;;;;;;;;;;;;;;;;;;5097321;28;19923;-72
2023/06/15 00:23:40;;;;;;;;;;;;;;;;;;5114219;28;19916;-72
2023/06/15 00:26:05;;;;;;;;;;;;;;;;;;5115550;28;19915;-73
2023/06/15 00:28:30;;;;;;;;;;;;;;;;;;5115297;28;19964;-73
2023/06/15 00:30:55;;;;;;;;;;;;;;;;;;5115405;28;19920;-73
2023/06/15 00:33:21;;;;;;;;;;;;;;;;;;5115470;28;19959;-73
2023/06/15 00:35:48;;;;;;;;;;;;;;;;;;5115146;28;20360;-73
2023/06/15 00:38:13;;;;;;;;;;;;;;;;;;5096760;28;20017;-73
2023/06/15 00:40:38;;;;;;;;;;;;;;;;;;5114196;28;20363;-73
2023/06/15 00:43:04;;;;;;;;;;;;;;;;;;5096676;28;19965;-73
2023/06/15 00:45:29;;;;;;;;;;;;;;;;;;5115046;28;19919;-73
2023/06/15 00:47:54;;;;;;;;;;;;;;;;;;5115229;28;20018;-73
2023/06/15 00:50:20;;;;;;;;;;;;;;;;;;5096851;28;19915;-73
2023/06/15 00:52:45;;;;;;;;;;;;;;;;;;5114037;28;19916;-73
2023/06/15 00:55:13;;;;;;;;;;;;;;;;;;5115069;28;20010;-73
2023/06/15 00:57:43;;;;;;;;;;;;;;;;;;5114851;28;19924;-73
2023/06/15 01:00:10;;;;;;;;;;;;;;;;;;5097091;28;19964;-72
2023/06/15 01:02:38;;;;;;;;;;;;;;;;;;5096635;28;19916;-73
2023/06/15 01:05:03;;;;;;;;;;;;;;;;;;5114737;28;19916;-72
2023/06/15 01:07:30;;;;;;;;;;;;;;;;;;5096426;28;19920;-71
2023/06/15 01:09:57;;;;;;;;;;;;;;;;;;5095919;28;19915;-72
2023/06/15 01:12:22;;;;;;;;;;;;;;;;;;5096132;28;19920;-73
2023/06/15 01:14:47;;;;;;;;;;;;;;;;;;5096494;28;20270;-73
2023/06/15 01:17:15;;;;;;;;;;;;;;;;;;5114544;28;19923;-72
2023/06/15 01:19:53;;;;;;;;;;;;;;;;;;5114609;28;19912;-73
2023/06/15 01:22:18;;;;;;;;;;;;;;;;;;5114658;28;19922;-73
2023/06/15 01:24:44;;;;;;;;;;;;;;;;;;5113435;28;19941;-73
2023/06/15 01:27:09;;;;;;;;;;;;;;;;;;5096140;28;20428;-74
2023/06/15 01:29:35;;;;;;;;;;;;;;;;;;5114480;28;20002;-73
2023/06/15 01:32:00;;;;;;;;;;;;;;;;;;5114311;28;19927;-73
2023/06/15 01:34:25;;;;;;;;;;;;;;;;;;5114317;28;19977;-72
2023/06/15 01:36:50;;;;;;;;;;;;;;;;;;5096256;28;20011;-72
2023/06/15 01:39:16;;;;;;;;;;;;;;;;;;5114210;28;19912;-73
2023/06/15 01:41:41;;;;;;;;;;;;;;;;;;5113960;28;19923;-72
2023/06/15 01:44:06;;;;;;;;;;;;;;;;;;5096252;28;19915;-72
2023/06/15 01:46:32;;;;;;;;;;;;;;;;;;5096042;28;20060;-72
2023/06/15 01:48:57;;;;;;;;;;;;;;;;;;5114174;28;19922;-72
2023/06/15 01:51:22;;;;;;;;;;;;;;;;;;5114044;28;19976;-72
2023/06/15 01:53:47;;;;;;;;;;;;;;;;;;5114045;28;19923;-73
2023/06/15 01:56:13;;;;;;;;;;;;;;;;;;5113892;28;19937;-72
2023/06/15 01:58:38;;;;;;;;;;;;;;;;;;5094818;28;20363;-72
2023/06/15 02:01:04;;;;;;;;;;;;;;;;;;5095837;28;19962;-72
2023/06/15 02:03:29;;;;;;;;;;;;;;;;;;5112734;28;19963;-72
2023/06/15 02:05:55;;;;;;;;;;;;;;;;;;5113950;28;19915;-73
2023/06/15 02:08:20;;;;;;;;;;;;;;;;;;5094947;28;20282;-73
2023/06/15 02:10:45;;;;;;;;;;;;;;;;;;5112441;28;20036;-73
2023/06/15 02:13:10;;;;;;;;;;;;;;;;;;5094577;28;19915;-73
2023/06/15 02:15:36;;;;;;;;;;;;;;;;;;5095629;28;19916;-73
2023/06/15 02:18:02;;;;;;;;;;;;;;;;;;5095437;28;20320;-73
2023/06/15 02:20:28;;;;;;;;;;;;;;;;;;5095576;28;19912;-73
2023/06/15 02:22:57;;;;;;;;;;;;;;;;;;5092852;28;19923;-73
2023/06/15 02:25:22;;;;;;;;;;;;;;;;;;5113648;28;19922;-73
2023/06/15 02:27:47;;;;;;;;;;;;;;;;;;5095287;28;20375;-73
2023/06/15 02:30:13;;;;;;;;;;;;;;;;;;5113634;28;19923;-73
2023/06/15 02:32:39;;;;;;;;;;;;;;;;;;5095141;28;20355;-73
2023/06/15 02:35:08;;;;;;;;;;;;;;;;;;5113588;28;19969;-73
2023/06/15 02:37:35;;;;;;;;;;;;;;;;;;5113406;28;19998;-74
2023/06/15 02:40:00;;;;;;;;;;;;;;;;;;5113345;28;19962;-73
2023/06/15 02:42:25;;;;;;;;;;;;;;;;;;5094834;28;20319;-73
2023/06/15 02:44:51;;;;;;;;;;;;;;;;;;5095215;28;19915;-73
2023/06/15 02:47:16;;;;;;;;;;;;;;;;;;5113468;28;19919;-73
2023/06/15 02:49:41;;;;;;;;;;;;;;;;;;5095030;28;19916;-73
2023/06/15 02:52:07;;;;;;;;;;;;;;;;;;5095141;28;19916;-73
2023/06/15 02:54:32;;;;;;;;;;;;;;;;;;5094921;28;19916;-74
2023/06/15 02:56:57;;;;;;;;;;;;;;;;;;5094555;28;19916;-72
2023/06/15 02:59:25;;;;;;;;;;;;;;;;;;5077871;28;19998;-74
2023/06/15 03:01:56;;;;;;;;;;;;;;;;;;5094211;28;20101;-73
2023/06/15 03:04:23;;;;;;;;;;;;;;;;;;5089297;28;19927;-73
2023/06/15 03:06:51;;;;;;;;;;;;;;;;;;5074376;28;19916;-73
2023/06/15 03:09:25;;;;;;;;;;;;;;;;;;5090041;28;19923;-73
2023/06/15 03:11:53;;;;;;;;;;;;;;;;;;5089930;28;19920;-73
2023/06/15 03:14:24;;;;;;;;;;;;;;;;;;5090568;28;20014;-74
2023/06/15 03:16:51;;;;;;;;;;;;;;;;;;5108700;28;19954;-73
2023/06/15 03:19:16;;;;;;;;;;;;;;;;;;5090625;28;19959;-74
2023/06/15 03:21:42;;;;;;;;;;;;;;;;;;5107365;28;19954;-74
2023/06/15 03:24:08;;;;;;;;;;;;;;;;;;5087510;28;20252;-74
2023/06/15 03:26:33;;;;;;;;;;;;;;;;;;5077134;28;19916;-74
2023/06/15 03:29:00;;;;;;;;;;;;;;;;;;5094099;28;19934;-74
2023/06/15 03:31:29;;;;;;;;;;;;;;;;;;5093706;28;19923;-74
2023/06/15 03:33:56;;;;;;;;;;;;;;;;;;5093864;28;19915;-73
2023/06/15 03:36:29;;;;;;;;;;;;;;;;;;5093221;28;19916;-74
2023/06/15 03:38:54;;;;;;;;;;;;;;;;;;5110361;28;19919;-73
2023/06/15 03:41:19;;;;;;;;;;;;;;;;;;5094142;28;19920;-73
2023/06/15 03:43:45;;;;;;;;;;;;;;;;;;5093588;28;19912;-74
2023/06/15 03:46:10;;;;;;;;;;;;;;;;;;5093427;28;20394;-74
2023/06/15 03:48:36;;;;;;;;;;;;;;;;;;5093433;28;19919;-73
2023/06/15 03:51:01;;;;;;;;;;;;;;;;;;5111866;28;19977;-74
2023/06/15 03:53:27;;;;;;;;;;;;;;;;;;5074081;28;19946;-75
2023/06/15 03:55:52;;;;;;;;;;;;;;;;;;5109810;28;19976;-74
2023/06/15 03:58:17;;;;;;;;;;;;;;;;;;5089389;28;19923;-72
2023/06/15 04:00:45;;;;;;;;;;;;;;;;;;5092726;28;19963;-72
2023/06/15 04:03:12;;;;;;;;;;;;;;;;;;5091712;28;20264;-75
2023/06/15 04:05:37;;;;;;;;;;;;;;;;;;5092924;28;19967;-73
2023/06/15 04:08:02;;;;;;;;;;;;;;;;;;5091121;28;19919;-72
2023/06/15 04:10:29;;;;;;;;;;;;;;;;;;5092795;28;19992;-72
2023/06/15 04:12:55;;;;;;;;;;;;;;;;;;5092058;28;19916;-73
2023/06/15 04:15:20;;;;;;;;;;;;;;;;;;5089799;28;20283;-72
2023/06/15 04:17:48;;;;;;;;;;;;;;;;;;5090305;28;20286;-72
2023/06/15 04:20:14;;;;;;;;;;;;;;;;;;5090311;28;20387;-72
2023/06/15 04:22:39;;;;;;;;;;;;;;;;;;5090959;28;20004;-72
2023/06/15 04:25:05;;;;;;;;;;;;;;;;;;5107786;28;19920;-72
2023/06/15 04:27:34;;;;;;;;;;;;;;;;;;5091265;28;19927;-73
2023/06/15 04:29:59;;;;;;;;;;;;;;;;;;5110130;28;19958;-74
2023/06/15 04:32:25;;;;;;;;;;;;;;;;;;5092440;28;19927;-72
2023/06/15 04:34:54;;;;;;;;;;;;;;;;;;5092274;28;19916;-72
2023/06/15 04:37:20;;;;;;;;;;;;;;;;;;5091035;28;19965;-72
2023/06/15 04:39:46;;;;;;;;;;;;;;;;;;5092339;28;19930;-72
2023/06/15 04:42:12;;;;;;;;;;;;;;;;;;5092857;28;20022;-73
2023/06/15 04:44:37;;;;;;;;;;;;;;;;;;5111476;28;19916;-74
2023/06/15 04:47:04;;;;;;;;;;;;;;;;;;5091082;28;19912;-72
2023/06/15 04:49:30;;;;;;;;;;;;;;;;;;5109839;28;19920;-73
2023/06/15 04:51:56;;;;;;;;;;;;;;;;;;5109762;28;19927;-74
2023/06/15 04:54:21;;;;;;;;;;;;;;;;;;5092503;28;19916;-72
2023/06/15 04:56:47;;;;;;;;;;;;;;;;;;5091928;28;19924;-73
2023/06/15 04:59:12;;;;;;;;;;;;;;;;;;5109539;28;19915;-73
2023/06/15 05:01:38;;;;;;;;;;;;;;;;;;5088749;28;20283;-72
2023/06/15 05:04:06;;;;;;;;;;;;;;;;;;5092217;28;19943;-71
2023/06/15 05:06:31;;;;;;;;;;;;;;;;;;5110768;28;19916;-72
2023/06/15 05:08:57;;;;;;;;;;;;;;;;;;5089930;28;19971;-73
2023/06/15 05:11:22;;;;;;;;;;;;;;;;;;5091740;28;20008;-72
2023/06/15 05:13:47;;;;;;;;;;;;;;;;;;5089926;28;19919;-73
2023/06/15 05:16:13;;;;;;;;;;;;;;;;;;5091733;28;19919;-73
2023/06/15 05:18:38;;;;;;;;;;;;;;;;;;5092279;28;19912;-71
2023/06/15 05:21:04;;;;;;;;;;;;;;;;;;5092410;28;19911;-74
2023/06/15 05:23:33;;;;;;;;;;;;;;;;;;5092058;28;19965;-73
2023/06/15 05:25:59;;;;;;;;;;;;;;;;;;5092442;28;19955;-73
2023/06/15 05:28:24;;;;;;;;;;;;;;;;;;5089433;28;19916;-73
2023/06/15 05:30:50;;;;;;;;;;;;;;;;;;5089517;28;19923;-73
2023/06/15 05:33:15;;;;;;;;;;;;;;;;;;5110582;28;20018;-72
2023/06/15 05:35:40;;;;;;;;;;;;;;;;;;5091858;28;20371;-72
2023/06/15 05:38:05;;;;;;;;;;;;;;;;;;5107735;28;19916;-72
2023/06/15 05:40:33;;;;;;;;;;;;;;;;;;5091524;28;19931;-74
2023/06/15 05:42:58;;;;;;;;;;;;;;;;;;5074402;28;20118;-73
2023/06/15 05:45:24;;;;;;;;;;;;;;;;;;5088601;28;20287;-73
2023/06/15 05:47:49;;;;;;;;;;;;;;;;;;5070915;28;19916;-73
2023/06/15 05:50:15;;;;;;;;;;;;;;;;;;5070934;28;19924;-72
2023/06/15 05:52:40;;;;;;;;;;;;;;;;;;5071629;28;20958;-72
2023/06/15 05:55:06;;;;;;;;;;;;;;;;;;5080507;28;19915;-73
2023/06/15 05:57:31;;;;;;;;;;;;;;;;;;5077629;28;19917;-72
2023/06/15 05:59:56;;;;;;;;;;;;;;;;;;5082786;28;20280;-71
2023/06/15 06:02:23;;;;;;;;;;;;;;;;;;5104642;28;19926;-72
2023/06/15 06:04:50;;;;;;;;;;;;;;;;;;5091797;28;20379;-72
2023/06/15 06:07:16;;;;;;;;;;;;;;;;;;5091416;28;19962;-72
2023/06/15 06:09:41;;;;;;;;;;;;;;;;;;5099830;28;19916;-71
2023/06/15 06:12:07;;;;;;;;;;;;;;;;;;5090400;28;19927;-72
2023/06/15 06:14:33;;;;;;;;;;;;;;;;;;5091623;28;19922;-72
2023/06/15 06:16:58;;;;;;;;;;;;;;;;;;5091305;28;19916;-73
2023/06/15 06:19:23;;;;;;;;;;;;;;;;;;5110034;28;19922;-73
2023/06/15 06:21:49;;;;;;;;;;;;;;;;;;5089973;28;20019;-72
2023/06/15 06:24:14;;;;;;;;;;;;;;;;;;5088882;28;19962;-73
2023/06/15 06:26:41;;;;;;;;;;;;;;;;;;5090152;28;19915;-73
2023/06/15 06:29:06;;;;;;;;;;;;;;;;;;5108803;28;19922;-73
2023/06/15 06:31:31;;;;;;;;;;;;;;;;;;5108074;28;19920;-73
2023/06/15 06:33:57;;;;;;;;;;;;;;;;;;5108291;28;19920;-73
2023/06/15 06:36:22;;;;;;;;;;;;;;;;;;5105597;28;20394;-73
2023/06/15 06:38:47;;;;;;;;;;;;;;;;;;5108218;28;19943;-73
2023/06/15 06:41:12;;;;;;;;;;;;;;;;;;5106436;28;20346;-73
2023/06/15 06:43:38;;;;;;;;;;;;;;;;;;5108757;28;19916;-73
2023/06/15 06:46:03;;;;;;;;;;;;;;;;;;5107926;28;19915;-73
2023/06/15 06:48:28;;;;;;;;;;;;;;;;;;5109349;28;19920;-72
2023/06/15 06:50:54;;;;;;;;;;;;;;;;;;5109354;28;20271;-73
2023/06/15 06:53:19;;;;;;;;;;;;;;;;;;5102475;28;19920;-72
2023/06/15 06:55:45;;;;;;;;;;;;;;;;;;5073154;28;20391;-72
2023/06/15 06:58:10;;;;;;;;;;;;;;;;;;5088769;28;19956;-73
2023/06/15 07:00:35;;;;;;;;;;;;;;;;;;5091093;28;19916;-73
2023/06/15 07:03:00;;;;;;;;;;;;;;;;;;5092481;28;19920;-73
2023/06/15 07:05:26;;;;;;;;;;;;;;;;;;5092526;28;19916;-73
2023/06/15 07:07:51;;;;;;;;;;;;;;;;;;5092339;28;20256;-73
2023/06/15 07:10:16;;;;;;;;;;;;;;;;;;5092326;28;20374;-73
2023/06/15 07:12:42;;;;;;;;;;;;;;;;;;5092225;28;19920;-72
2023/06/15 07:15:07;;;;;;;;;;;;;;;;;;5092530;28;20663;-72
2023/06/15 07:17:32;;;;;;;;;;;;;;;;;;5092423;28;19924;-73
2023/06/15 07:19:57;;;;;;;;;;;;;;;;;;5103255;28;20387;-73
2023/06/15 07:22:23;;;;;;;;;;;;;;;;;;5112205;28;19921;-73
2023/06/15 07:24:48;;;;;;;;;;;;;;;;;;5112770;28;19922;-73
2023/06/15 07:27:14;;;;;;;;;;;;;;;;;;5112521;28;19916;-72
2023/06/15 07:29:39;;;;;;;;;;;;;;;;;;5112717;28;19931;-73
2023/06/15 07:32:04;;;;;;;;;;;;;;;;;;5112076;28;20371;-73
2023/06/15 07:34:29;;;;;;;;;;;;;;;;;;5110904;28;20022;-72
2023/06/15 07:36:55;;;;;;;;;;;;;;;;;;5112340;28;19964;-73
2023/06/15 07:39:20;;;;;;;;;;;;;;;;;;5107390;28;19922;-71
2023/06/15 07:41:45;;;;;;;;;;;;;;;;;;5102553;28;19961;-73
2023/06/15 07:44:12;;;;;;;;;;;;;;;;;;5112007;28;19964;-73
2023/06/15 07:46:37;;;;;;;;;;;;;;;;;;5110429;28;20386;-73
2023/06/15 07:49:03;;;;;;;;;;;;;;;;;;5109546;28;19912;-74
2023/06/15 07:51:28;;;;;;;;;;;;;;;;;;5109482;28;19926;-72
2023/06/15 07:53:53;;;;;;;;;;;;;;;;;;5110775;28;19955;-72
2023/06/15 07:56:18;;;;;;;;;;;;;;;;;;5111603;28;20097;-73
2023/06/15 07:58:44;;;;;;;;;;;;;;;;;;5110117;28;20379;-73
2023/06/15 08:01:09;;;;;;;;;;;;;;;;;;5110351;28;19941;-74
2023/06/15 08:03:34;;;;;;;;;;;;;;;;;;5109204;28;20406;-73
2023/06/15 08:06:00;;;;;;;;;;;;;;;;;;5108913;28;19923;-73
2023/06/15 08:08:25;;;;;;;;;;;;;;;;;;5109621;28;20220;-73
2023/06/15 08:10:50;;;;;;;;;;;;;;;;;;5109145;28;19924;-72
2023/06/15 08:13:18;;;;;;;;;;;;;;;;;;5109193;28;19922;-72
2023/06/15 08:15:44;;;;;;;;;;;;;;;;;;5108807;28;20026;-72
2023/06/15 08:18:09;;;;;;;;;;;;;;;;;;5108953;28;20006;-72
2023/06/15 08:20:34;;;;;;;;;;;;;;;;;;5110062;28;19972;-73
2023/06/15 08:22:59;;;;;;;;;;;;;;;;;;5109658;28;19915;-72
2023/06/15 08:25:25;;;;;;;;;;;;;;;;;;5110095;28;19967;-72
2023/06/15 08:27:50;;;;;;;;;;;;;;;;;;5110124;28;19927;-72
2023/06/15 08:30:15;;;;;;;;;;;;;;;;;;5110682;28;19918;-73
2023/06/15 08:32:40;;;;;;;;;;;;;;;;;;5111269;28;20332;-73
2023/06/15 08:35:07;;;;;;;;;;;;;;;;;;5111415;28;19920;-73
2023/06/15 08:37:32;;;;;;;;;;;;;;;;;;5111226;28;20365;-72
2023/06/15 08:39:58;;;;;;;;;;;;;;;;;;5111457;28;19969;-72
2023/06/15 08:42:26;;;;;;;;;;;;;;;;;;5110961;28;19947;-72
2023/06/15 08:44:51;;;;;;;;;;;;;;;;;;5110962;28;19927;-73
2023/06/15 08:47:17;;;;;;;;;;;;;;;;;;5111467;28;20283;-72
2023/06/15 08:49:42;;;;;;;;;;;;;;;;;;5111189;28;20282;-72
2023/06/15 08:52:08;;;;;;;;;;;;;;;;;;5110945;28;19968;-73
2023/06/15 08:54:35;;;;;;;;;;;;;;;;;;5110802;28;19916;-72
2023/06/15 08:57:01;;;;;;;;;;;;;;;;;;5093107;28;20006;-72
2023/06/15 08:59:26;;;;;;;;;;;;;;;;;;5110967;28;20011;-73
2023/06/15 09:01:51;;;;;;;;;;;;;;;;;;5110897;28;20014;-73
2023/06/15 09:04:17;;;;;;;;;;;;;;;;;;5110692;28;19920;-72
2023/06/15 09:06:42;;;;;;;;;;;;;;;;;;5110699;28;19916;-73
2023/06/15 09:09:07;;;;;;;;;;;;;;;;;;5110620;28;20002;-73
2023/06/15 09:11:32;;;;;;;;;;;;;;;;;;5092614;28;19916;-73
2023/06/15 09:13:58;;;;;;;;;;;;;;;;;;5110760;28;20361;-72
2023/06/15 09:16:23;;;;;;;;;;;;;;;;;;5110176;28;19920;-72
2023/06/15 09:18:50;;;;;;;;;;;;;;;;;;5110641;28;20391;-73
2023/06/15 09:21:16;;;;;;;;;;;;;;;;;;5110502;28;19927;-73
2023/06/15 09:23:42;;;;;;;;;;;;;;;;;;5110103;28;19916;-72
2023/06/15 09:26:07;;;;;;;;;;;;;;;;;;5110479;28;19923;-72
2023/06/15 09:28:34;;;;;;;;;;;;;;;;;;5110361;28;20287;-72
2023/06/15 09:31:00;;;;;;;;;;;;;;;;;;5110392;28;19930;-72
2023/06/15 09:33:26;;;;;;;;;;;;;;;;;;5110417;28;19916;-72
2023/06/15 09:35:51;;;;;;;;;;;;;;;;;;5110509;28;20385;-73
2023/06/15 09:38:16;;;;;;;;;;;;;;;;;;5109980;28;19955;-72
2023/06/15 09:40:41;;;;;;;;;;;;;;;;;;5109895;28;19923;-72
2023/06/15 09:43:07;;;;;;;;;;;;;;;;;;5110414;28;19919;-72
2023/06/15 09:45:32;;;;;;;;;;;;;;;;;;5110242;28;19919;-73
2023/06/15 09:47:57;;;;;;;;;;;;;;;;;;5110093;28;19961;-72
2023/06/15 09:50:23;;;;;;;;;;;;;;;;;;5109996;28;19926;-72
2023/06/15 09:52:48;;;;;;;;;;;;;;;;;;5110162;28;19920;-72
2023/06/15 09:55:13;;;;;;;;;;;;;;;;;;5110011;28;20432;-73
2023/06/15 09:57:39;;;;;;;;;;;;;;;;;;5109791;28;20006;-72
2023/06/15 10:00:07;;;;;;;;;;;;;;;;;;5109976;28;19923;-73
2023/06/15 10:02:37;;;;;;;;;;;;;;;;;;5109957;28;19923;-73
2023/06/15 10:05:03;;;;;;;;;;;;;;;;;;5109903;28;19920;-73
2023/06/15 10:07:28;;;;;;;;;;;;;;;;;;5109378;28;20402;-73
2023/06/15 10:09:54;;;;;;;;;;;;;;;;;;5109990;28;19920;-72
2023/06/15 10:12:20;;;;;;;;;;;;;;;;;;5109236;28;20398;-72
2023/06/15 10:14:45;;;;;;;;;;;;;;;;;;5109782;28;19958;-73
2023/06/15 10:17:11;;;;;;;;;;;;;;;;;;5109649;28;20014;-73
2023/06/15 10:19:42;;;;;;;;;;;;;;;;;;5109772;28;19927;-72
2023/06/15 10:22:08;;;;;;;;;;;;;;;;;;5109789;28;19923;-73
2023/06/15 10:24:34;;;;;;;;;;;;;;;;;;5109546;28;20294;-73
2023/06/15 10:27:00;;;;;;;;;;;;;;;;;;5109446;28;19920;-74
2023/06/15 10:29:25;;;;;;;;;;;;;;;;;;5110249;28;19908;-72
2023/06/15 10:31:50;;;;;;;;;;;;;;;;;;5109531;28;19920;-73
2023/06/15 10:34:15;;;;;;;;;;;;;;;;;;5108485;28;20268;-73
2023/06/15 10:36:41;;;;;;;;;;;;;;;;;;5109430;28;19990;-73
2023/06/15 10:39:06;;;;;;;;;;;;;;;;;;5104927;28;19942;-73
2023/06/15 10:41:32;;;;;;;;;;;;;;;;;;5091121;28;20389;-74
2023/06/15 10:43:57;;;;;;;;;;;;;;;;;;5100398;28;19920;-73
2023/06/15 10:46:23;;;;;;;;;;;;;;;;;;5098756;28;19919;-73
2023/06/15 10:48:48;;;;;;;;;;;;;;;;;;5105980;28;20374;-72
2023/06/15 10:51:15;;;;;;;;;;;;;;;;;;5108423;28;19928;-73
2023/06/15 10:53:40;;;;;;;;;;;;;;;;;;5089997;28;20367;-74
2023/06/15 10:56:06;;;;;;;;;;;;;;;;;;5088302;28;20006;-73
2023/06/15 10:58:31;;;;;;;;;;;;;;;;;;5107976;28;19922;-73
2023/06/15 11:00:56;;;;;;;;;;;;;;;;;;5109276;28;19916;-74
2023/06/15 11:03:22;;;;;;;;;;;;;;;;;;5098118;28;19962;-73
2023/06/15 11:05:47;;;;;;;;;;;;;;;;;;5094937;28;19915;-75
2023/06/15 11:08:12;;;;;;;;;;;;;;;;;;5063619;28;19916;-73
2023/06/15 11:10:37;;;;;;;;;;;;;;;;;;5094014;28;20091;-73
2023/06/15 11:13:03;;;;;;;;;;;;;;;;;;5094353;28;19920;-73
2023/06/15 11:15:28;;;;;;;;;;;;;;;;;;5096898;28;19922;-74
2023/06/15 11:17:55;;;;;;;;;;;;;;;;;;5103168;28;19939;-73
2023/06/15 11:20:20;;;;;;;;;;;;;;;;;;5108867;28;20007;-73
2023/06/15 11:22:46;;;;;;;;;;;;;;;;;;5105594;28;20390;-73
2023/06/15 11:25:11;;;;;;;;;;;;;;;;;;5109045;28;19916;-72
2023/06/15 11:27:36;;;;;;;;;;;;;;;;;;5108879;28;19915;-75
2023/06/15 11:30:03;;;;;;;;;;;;;;;;;;5088310;28;19916;-74
2023/06/15 11:32:28;;;;;;;;;;;;;;;;;;5103178;28;19920;-74
2023/06/15 11:34:54;;;;;;;;;;;;;;;;;;5108877;28;20390;-72
2023/06/15 11:37:22;;;;;;;;;;;;;;;;;;5108409;28;20381;-73
2023/06/15 11:39:47;;;;;;;;;;;;;;;;;;5108464;28;20006;-73
2023/06/15 11:42:12;;;;;;;;;;;;;;;;;;5108028;28;20065;-73
2023/06/15 11:44:44;;;;;;;;;;;;;;;;;;5106694;28;19922;-73
2023/06/15 11:47:13;;;;;;;;;;;;;;;;;;5105456;28;19920;-73
2023/06/15 11:49:38;;;;;;;;;;;;;;;;;;5104264;28;19916;-75
2023/06/15 11:52:04;;;;;;;;;;;;;;;;;;5101136;28;20386;-73
2023/06/15 11:54:29;;;;;;;;;;;;;;;;;;5100332;28;19930;-72
2023/06/15 11:56:55;;;;;;;;;;;;;;;;;;5080536;28;20314;-75
2023/06/15 11:59:21;;;;;;;;;;;;;;;;;;5101358;28;19912;-73
2023/06/15 12:01:46;;;;;;;;;;;;;;;;;;5103986;28;19920;-73
2023/06/15 12:04:15;;;;;;;;;;;;;;;;;;5100781;28;20375;-74
2023/06/15 12:06:41;;;;;;;;;;;;;;;;;;5081896;28;20347;-73
2023/06/15 12:09:07;;;;;;;;;;;;;;;;;;5104293;28;19969;-72
2023/06/15 12:11:32;;;;;;;;;;;;;;;;;;5107895;28;20279;-73
2023/06/15 12:13:58;;;;;;;;;;;;;;;;;;5108577;28;19927;-72
2023/06/15 12:16:23;;;;;;;;;;;;;;;;;;5108885;28;20282;-73
2023/06/15 12:18:48;;;;;;;;;;;;;;;;;;5103760;28;19926;-73
2023/06/15 12:21:14;;;;;;;;;;;;;;;;;;5108495;28;19924;-73
2023/06/15 12:23:39;;;;;;;;;;;;;;;;;;5108936;28;19926;-74
2023/06/15 12:26:04;;;;;;;;;;;;;;;;;;5089361;28;19916;-73
2023/06/15 12:28:30;;;;;;;;;;;;;;;;;;5089418;28;19923;-73
2023/06/15 12:30:55;;;;;;;;;;;;;;;;;;5089495;28;19912;-73
2023/06/15 12:33:20;;;;;;;;;;;;;;;;;;5089136;28;19977;-72
2023/06/15 12:35:48;;;;;;;;;;;;;;;;;;5089186;28;20339;-73
2023/06/15 12:38:14;;;;;;;;;;;;;;;;;;5087882;28;20362;-73
2023/06/15 12:40:39;;;;;;;;;;;;;;;;;;5089591;28;19920;-72
2023/06/15 12:43:05;;;;;;;;;;;;;;;;;;5087869;28;19916;-74
2023/06/15 12:45:30;;;;;;;;;;;;;;;;;;5089082;28;19916;-73
2023/06/15 12:47:56;;;;;;;;;;;;;;;;;;5088470;28;19969;-73
2023/06/15 12:50:21;;;;;;;;;;;;;;;;;;5088895;28;19941;-72
2023/06/15 12:52:46;;;;;;;;;;;;;;;;;;5089088;28;20009;-73
2023/06/15 12:55:12;;;;;;;;;;;;;;;;;;5089819;28;19919;-74
2023/06/15 12:57:37;;;;;;;;;;;;;;;;;;5087535;28;19916;-73
2023/06/15 13:00:02;;;;;;;;;;;;;;;;;;5089094;28;20325;-73
2023/06/15 13:02:31;;;;;;;;;;;;;;;;;;5090520;28;20253;-73
2023/06/15 13:04:58;;;;;;;;;;;;;;;;;;5090720;28;19919;-74
2023/06/15 13:07:24;;;;;;;;;;;;;;;;;;5090436;28;19928;-72
2023/06/15 13:09:49;;;;;;;;;;;;;;;;;;5090384;28;19923;-73
2023/06/15 13:12:14;;;;;;;;;;;;;;;;;;5090258;28;19924;-71
2023/06/15 13:14:40;;;;;;;;;;;;;;;;;;5090524;28;19966;-72
2023/06/15 13:17:05;;;;;;;;;;;;;;;;;;5090084;28;19916;-73
2023/06/15 13:19:30;;;;;;;;;;;;;;;;;;5090636;28;19916;-72
2023/06/15 13:21:55;;;;;;;;;;;;;;;;;;5090063;28;19916;-71
2023/06/15 13:24:21;;;;;;;;;;;;;;;;;;5090114;28;19918;-72
2023/06/15 13:26:46;;;;;;;;;;;;;;;;;;5090127;28;20359;-73
2023/06/15 13:29:12;;;;;;;;;;;;;;;;;;5089145;28;19957;-72
2023/06/15 13:31:37;;;;;;;;;;;;;;;;;;5090217;28;19928;-71
2023/06/15 13:34:03;;;;;;;;;;;;;;;;;;5090061;28;19965;-74
2023/06/15 13:36:28;;;;;;;;;;;;;;;;;;5089954;28;19924;-72
2023/06/15 13:38:53;;;;;;;;;;;;;;;;;;5088562;28;19916;-72
2023/06/15 13:41:19;;;;;;;;;;;;;;;;;;5089996;28;19916;-73
2023/06/15 13:43:44;;;;;;;;;;;;;;;;;;5089869;28;20413;-72
2023/06/15 13:46:09;;;;;;;;;;;;;;;;;;5090133;28;19924;-72
2023/06/15 13:48:34;;;;;;;;;;;;;;;;;;5089847;28;19920;-72
2023/06/15 13:51:00;;;;;;;;;;;;;;;;;;5089384;28;19923;-73
2023/06/15 13:53:25;;;;;;;;;;;;;;;;;;5088497;28;19936;-73
2023/06/15 13:55:51;;;;;;;;;;;;;;;;;;5090191;28;20267;-72
2023/06/15 13:58:16;;;;;;;;;;;;;;;;;;5089531;28;19916;-72
2023/06/15 14:00:41;;;;;;;;;;;;;;;;;;5089643;28;19916;-72
2023/06/15 14:03:07;;;;;;;;;;;;;;;;;;5089542;28;19926;-72
2023/06/15 14:05:32;;;;;;;;;;;;;;;;;;5089541;28;19962;-73
2023/06/15 14:07:57;;;;;;;;;;;;;;;;;;5089374;28;20332;-72
2023/06/15 14:10:23;;;;;;;;;;;;;;;;;;5088635;28;19982;-72
2023/06/15 14:12:49;;;;;;;;;;;;;;;;;;5089662;28;20003;-72
2023/06/15 14:15:15;;;;;;;;;;;;;;;;;;5089322;28;19916;-71
2023/06/15 14:17:40;;;;;;;;;;;;;;;;;;5089156;28;19939;-72
2023/06/15 14:20:05;;;;;;;;;;;;;;;;;;5089387;28;19922;-72
2023/06/15 14:22:31;;;;;;;;;;;;;;;;;;5088817;28;20022;-73
2023/06/15 14:24:56;;;;;;;;;;;;;;;;;;5089415;28;19927;-73
2023/06/15 14:27:21;;;;;;;;;;;;;;;;;;5089842;28;19923;-72
2023/06/15 14:29:47;;;;;;;;;;;;;;;;;;5089236;28;20372;-73
2023/06/15 14:32:14;;;;;;;;;;;;;;;;;;5089151;28;19920;-73
2023/06/15 14:34:40;;;;;;;;;;;;;;;;;;5089250;28;19920;-73
2023/06/15 14:37:05;;;;;;;;;;;;;;;;;;5089336;28;20346;-72
2023/06/15 14:39:31;;;;;;;;;;;;;;;;;;5087882;28;20434;-73
2023/06/15 14:41:56;;;;;;;;;;;;;;;;;;5088900;28;19916;-71
2023/06/15 14:44:21;;;;;;;;;;;;;;;;;;5088989;28;20368;-73
2023/06/15 14:46:46;;;;;;;;;;;;;;;;;;5088703;28;19959;-72
2023/06/15 14:49:12;;;;;;;;;;;;;;;;;;5088875;28;19924;-71
2023/06/15 14:51:39;;;;;;;;;;;;;;;;;;5088997;28;19923;-72
2023/06/15 14:54:05;;;;;;;;;;;;;;;;;;5088280;28;20364;-71
2023/06/15 14:56:30;;;;;;;;;;;;;;;;;;5089116;28;19938;-71
2023/06/15 14:58:55;;;;;;;;;;;;;;;;;;5088796;28;19912;-71
2023/06/15 15:01:21;;;;;;;;;;;;;;;;;;5087878;28;19916;-71
2023/06/15 15:03:47;;;;;;;;;;;;;;;;;;5088852;28;20336;-72
2023/06/15 15:06:12;;;;;;;;;;;;;;;;;;5088927;28;19954;-71
2023/06/15 15:08:37;;;;;;;;;;;;;;;;;;5088426;28;20333;-71
2023/06/15 15:11:03;;;;;;;;;;;;;;;;;;5088850;28;20391;-71
2023/06/15 15:13:28;;;;;;;;;;;;;;;;;;5088560;28;19947;-71
2023/06/15 15:15:53;;;;;;;;;;;;;;;;;;5089140;28;19920;-71
2023/06/15 15:18:18;;;;;;;;;;;;;;;;;;5088385;28;19974;-71
2023/06/15 15:20:44;;;;;;;;;;;;;;;;;;5089447;28;19927;-72
2023/06/15 15:23:09;;;;;;;;;;;;;;;;;;5092297;28;20397;-72
2023/06/15 15:25:34;;;;;;;;;;;;;;;;;;5091981;28;19923;-72
2023/06/15 15:27:59;;;;;;;;;;;;;;;;;;5092040;28;19916;-73
2023/06/15 15:30:25;;;;;;;;;;;;;;;;;;5092001;28;19912;-71
2023/06/15 15:32:50;;;;;;;;;;;;;;;;;;5092092;28;20068;-71
2023/06/15 15:35:15;;;;;;;;;;;;;;;;;;5092069;28;19923;-72
2023/06/15 15:37:41;;;;;;;;;;;;;;;;;;5091614;28;20376;-71
2023/06/15 15:40:06;;;;;;;;;;;;;;;;;;5091537;28;19920;-71
2023/06/15 15:42:31;;;;;;;;;;;;;;;;;;5091801;28;19912;-71
2023/06/15 15:44:56;;;;;;;;;;;;;;;;;;5091737;28;20273;-73
2023/06/15 15:47:22;;;;;;;;;;;;;;;;;;5091754;28;19919;-71
2023/06/15 15:49:47;;;;;;;;;;;;;;;;;;5091347;28;20433;-73
2023/06/15 15:52:12;;;;;;;;;;;;;;;;;;5097263;28;20018;-73
2023/06/15 15:54:37;;;;;;;;;;;;;;;;;;5106808;28;20011;-73
2023/06/15 15:57:03;;;;;;;;;;;;;;;;;;5111677;28;20406;-73
2023/06/15 15:59:29;;;;;;;;;;;;;;;;;;5112086;28;20268;-72
2023/06/15 16:01:54;;;;;;;;;;;;;;;;;;5093922;28;19912;-72
2023/06/15 16:04:20;;;;;;;;;;;;;;;;;;5111717;28;19946;-73
2023/06/15 16:06:45;;;;;;;;;;;;;;;;;;5112086;28;19937;-71
2023/06/15 16:09:10;;;;;;;;;;;;;;;;;;5111693;28;19958;-72
2023/06/15 16:11:35;;;;;;;;;;;;;;;;;;5111530;28;20337;-71
2023/06/15 16:14:01;;;;;;;;;;;;;;;;;;5111233;28;19916;-73
2023/06/15 16:16:26;;;;;;;;;;;;;;;;;;5112440;28;19920;-73
2023/06/15 16:18:51;;;;;;;;;;;;;;;;;;5111663;28;20277;-72
2023/06/15 16:21:16;;;;;;;;;;;;;;;;;;5111599;28;19912;-71
2023/06/15 16:23:42;;;;;;;;;;;;;;;;;;5111481;28;19938;-71
2023/06/15 16:26:07;;;;;;;;;;;;;;;;;;5111393;28;19938;-70
2023/06/15 16:28:33;;;;;;;;;;;;;;;;;;5111354;28;19924;-70
2023/06/15 16:30:59;;;;;;;;;;;;;;;;;;5111330;28;19923;-71
2023/06/15 16:33:25;;;;;;;;;;;;;;;;;;5109842;28;19912;-71
2023/06/15 16:35:52;;;;;;;;;;;;;;;;;;5110180;28;19922;-74